Alpine, Idaho
Current Conditions -  °F | °C
As of 7:51 PM on Tuesday 21 Oct 2014 (Local Time) from KMYL Reporting Station
Overcast Overcast  
Wind Chill: 39°   Ceiling: 7500
Heat Index: 39°   Visibility: 10mi
Dew Point: 36°   Wind: 3mph
Humidity: 89%   Direction: 60°ENE
Pressure: 30.06"   Gusts: NA
Location:  44.6782°N, 116.766°W
Report Text: KMYL 220151Z AUTO 06003KT 10SM OVC075 04/02 A3006 RMK AO2 SLP183 T00390022
Loading
Personal Weather Stations






























Interactive Weather Map New forecast layout! Learn more

10-Day Weather Forecast

Advertisements
Track Severe Weather on mobile